Sarah Reed — WDC3151 — position and weather

sailwx.info

Track history (hours):
 
Tides and Currents Weather Stations Pressure Air Temp Water Temp Dewpoint Dewpoint Depression Visibility Wind Speed Wind Dir Waves Ship Positions

Sarah Reed

Owner: THE DUTRA GROUP, SAN RAFAEL, CA. More information available from US FCC via Universal Licensing System.

Last reported at 2017-Nov-19 05:00 UTC. Time now 2017-Nov-19 05:06 UTC.
Position N 38°13' W 122°36'.

Length 19 m; draft 3.3 m.

Type: Towing. MMSI: 367003250.

Date/timePositionNaut miles runAvg speedWind from/ knotsBaromVisibWave heightAir tempDewpointWater temp
2017-Nov-19 05:00N 38°13' W 122°36'0 0.0
2017-Nov-19 04:30N 38°13' W 122°36'0 0.0
2017-Nov-19 04:00N 38°13' W 122°36'0 0.0
2017-Nov-19 03:30N 38°13' W 122°36'0 0.0
2017-Nov-18 19:35N 38°13' W 122°36'0 0.0
2017-Nov-18 19:30N 38°13' W 122°36'1 2.3
2017-Nov-18 19:00N 38°13' W 122°35'2 3.8
2017-Nov-18 18:30N 38°12' W 122°33'2 4.2
2017-Nov-18 18:00N 38°10' W 122°32'2 4.1
2017-Nov-18 17:30N 38°08' W 122°31'2 4.1
2017-Nov-18 17:00N 38°07' W 122°29'2 4.7
2017-Nov-18 16:30N 38°05' W 122°27'2 4.2
2017-Nov-18 16:00N 38°03' W 122°26'3 5.6
2017-Nov-18 15:30N 38°01' W 122°26'3 5.4
2017-Nov-18 15:00N 37°58' W 122°26'3 5.4
2017-Nov-18 14:30N 37°55' W 122°25'3 5.0
2017-Nov-18 14:00N 37°53' W 122°24'2 4.9
2017-Nov-18 13:30N 37°51' W 122°23'2 3.2
2017-Nov-18 13:00N 37°50' W 122°21'0 0.1
2017-Nov-18 12:30N 37°50' W 122°21'0 0.5
2017-Nov-18 12:00N 37°50' W 122°21'2 4.5
2017-Nov-18 11:30N 37°52' W 122°23'4 7.4
2017-Nov-18 11:00N 37°55' W 122°25'4 7.8
2017-Nov-18 10:30N 37°59' W 122°26'4 7.1
2017-Nov-18 10:00N 38°02' W 122°26'3 6.5
2017-Nov-18 09:29N 38°06' W 122°27'3 5.8
2017-Nov-18 09:00N 38°07' W 122°30'2 4.9
2017-Nov-18 08:30N 38°09' W 122°32'2 4.2
2017-Nov-18 08:00N 38°11' W 122°32'2 4.2
2017-Nov-18 07:30N 38°12' W 122°34'2 4.0
2017-Nov-18 07:00N 38°13' W 122°36'0 0.0
2017-Nov-17 19:19N 38°13' W 122°36'0 1.2
2017-Nov-17 19:00N 38°13' W 122°36'2 3.3
2017-Nov-17 18:30N 38°12' W 122°34'2 3.3
2017-Nov-17 18:00N 38°11' W 122°33'2 3.6
2017-Nov-17 17:30N 38°09' W 122°33'3 5.0
2017-Nov-17 17:00N 38°07' W 122°31'3 4.1
2017-Nov-17 16:20N 38°06' W 122°27'2 4.8
2017-Nov-17 16:00N 38°05' W 122°26'2 4.7
2017-Nov-17 15:30N 38°03' W 122°26'3 5.3
2017-Nov-17 15:00N 38°00' W 122°26'2 4.6
2017-Nov-17 14:30N 37°58' W 122°26'2 4.9
2017-Nov-17 14:00N 37°55' W 122°25'2 4.4
2017-Nov-17 13:30N 37°53' W 122°25'2 4.5
2017-Nov-17 13:00N 37°51' W 122°23'2 4.3
2017-Nov-17 12:30N 37°50' W 122°21'0 0.2
2017-Nov-17 12:01N 37°50' W 122°21'0 0.6
2017-Nov-17 11:31N 37°50' W 122°21'3 6.4
2017-Nov-17 11:00N 37°53' W 122°24'4 8.3
2017-Nov-17 10:28N 37°57' W 122°26'4 7.8
2017-Nov-17 09:59N 38°00' W 122°26'3 7.0
2017-Nov-17 09:30N 38°04' W 122°26'4 5.9
2017-Nov-17 08:48N 38°07' W 122°30'1 4.4
2017-Nov-17 08:30N 38°08' W 122°31'3 5.0
2017-Nov-17 07:59N 38°10' W 122°32'2 4.5
2017-Nov-17 07:30N 38°12' W 122°33'3 5.0
2017-Nov-17 07:00N 38°13' W 122°36'0 0.5
2017-Nov-17 06:30N 38°13' W 122°36'0 0.0
2017-Nov-17 06:00N 38°13' W 122°36'0 0.0
2017-Nov-16 18:35N 38°13' W 122°36'0 0.1
2017-Nov-16 18:30N 38°13' W 122°36'1 1.8
2017-Nov-16 18:00N 38°13' W 122°35'2 3.8
2017-Nov-16 17:30N 38°12' W 122°33'2 4.0
2017-Nov-16 17:00N 38°10' W 122°32'2 3.7
2017-Nov-16 16:30N 38°08' W 122°31'4 4.2
2017-Nov-16 15:36N 38°06' W 122°27'1 5.1
2017-Nov-16 15:29N 38°06' W 122°27'2 4.4
2017-Nov-16 15:00N 38°04' W 122°26'3 5.3
2017-Nov-16 14:30N 38°01' W 122°26'3 5.0
2017-Nov-16 14:00N 37°59' W 122°26'2 4.9
2017-Nov-16 13:30N 37°56' W 122°26'2 4.6
2017-Nov-16 13:00N 37°54' W 122°25'2 4.5
2017-Nov-16 12:31N 37°52' W 122°24'3 5.0
2017-Nov-16 12:00N 37°50' W 122°22'1 1.4
2017-Nov-16 11:30N 37°50' W 122°21'0 0.1
2017-Nov-16 11:01N 37°50' W 122°21'1 1.6
2017-Nov-16 10:30N 37°50' W 122°22'3 6.4
2017-Nov-16 10:00N 37°53' W 122°24'4 8.0
2017-Nov-16 09:30N 37°57' W 122°26'4 7.5
2017-Nov-16 08:58N 38°01' W 122°26'3 6.8
2017-Nov-16 08:30N 38°04' W 122°26'3 6.1
2017-Nov-16 07:59N 38°07' W 122°28'2 5.0
2017-Nov-16 07:30N 38°08' W 122°31'3 5.5
2017-Nov-16 07:00N 38°10' W 122°33'2 4.4
2017-Nov-16 06:31N 38°12' W 122°33'2 4.6
2017-Nov-16 06:00N 38°13' W 122°36'1 1.3
2017-Nov-16 05:30N 38°13' W 122°36'0 0.0
2017-Nov-16 05:00N 38°13' W 122°36'0 0.0
2017-Nov-16 04:30N 38°13' W 122°36'0 0.0
2017-Nov-16 04:00N 38°13' W 122°36'0 0.0
2017-Nov-15 19:28N 38°13' W 122°36'0 0.0
2017-Nov-15 19:00N 38°13' W 122°36'0 0.0
2017-Nov-15 18:30N 38°13' W 122°36'0 0.0
2017-Nov-15 18:00N 38°13' W 122°36'0 0.0
2017-Nov-15 17:30N 38°13' W 122°36'0 0.0
2017-Nov-15 17:00N 38°13' W 122°36'0 0.0
2017-Nov-15 16:30N 38°13' W 122°36'0 0.0
2017-Nov-15 16:01N 38°13' W 122°36'0 0.0
2017-Nov-15 15:31N 38°13' W 122°36'0 0.0
2017-Nov-15 15:00N 38°13' W 122°36'0 0.0
2017-Nov-15 14:27N 38°13' W 122°36'0 0.0
2017-Nov-15 13:58N 38°13' W 122°36'0 0.0
2017-Nov-15 13:30N 38°13' W 122°36'0 0.0
2017-Nov-15 13:00N 38°13' W 122°36'0 0.0
2017-Nov-15 12:30N 38°13' W 122°36'0 0.0
2017-Nov-15 12:01N 38°13' W 122°36'0 0.0
2017-Nov-15 11:30N 38°13' W 122°36'0 0.0
2017-Nov-15 11:00N 38°13' W 122°36'0 0.0
2017-Nov-15 10:30N 38°13' W 122°36'0 0.0
2017-Nov-15 10:00N 38°13' W 122°36'0 0.0
2017-Nov-15 09:31N 38°13' W 122°36'0 0.0
2017-Nov-15 09:00N 38°13' W 122°36'0 0.0
2017-Nov-15 08:30N 38°13' W 122°36'0 0.0
2017-Nov-15 08:01N 38°13' W 122°36'0 0.0
2017-Nov-15 07:31N 38°13' W 122°36'0 0.0
2017-Nov-15 07:01N 38°13' W 122°36'0 0.0
2017-Nov-15 06:31N 38°13' W 122°36'0 0.0
2017-Nov-15 06:00N 38°13' W 122°36'0 0.0
2017-Nov-15 05:31N 38°13' W 122°36'0 0.1
2017-Nov-15 05:01N 38°13' W 122°36'0 0.3
2017-Nov-15 04:31N 38°13' W 122°36'0 0.0
2017-Nov-15 04:00N 38°13' W 122°36'0 0.0
2017-Nov-15 03:30N 38°13' W 122°36'0 0.0
2017-Nov-15 03:01N 38°13' W 122°36'0 0.0
2017-Nov-15 02:30N 38°13' W 122°36'0 0.0
2017-Nov-15 02:00N 38°13' W 122°36'0 0.0
2017-Nov-15 01:30N 38°13' W 122°36'0 0.0
2017-Nov-15 01:00N 38°13' W 122°36'0 0.0
2017-Nov-15 00:31N 38°13' W 122°36'0 0.0
2017-Nov-15 00:00N 38°13' W 122°36'0 0.0
2017-Nov-14 23:31N 38°13' W 122°36'0 0.0
2017-Nov-14 23:00N 38°13' W 122°36'0 0.0
2017-Nov-14 22:30N 38°13' W 122°36'0 0.0
2017-Nov-14 22:01N 38°13' W 122°36'0 0.0
2017-Nov-14 21:31N 38°13' W 122°36'0 0.1
2017-Nov-14 21:00N 38°13' W 122°36'0 0.1
2017-Nov-14 19:20N 38°13' W 122°36'0 1.2
2017-Nov-14 19:01N 38°13' W 122°36'2 3.2
2017-Nov-14 18:31N 38°12' W 122°34'2 3.2
2017-Nov-14 18:00N 38°11' W 122°33'2 3.4
2017-Nov-14 17:30N 38°09' W 122°33'2 5.0
2017-Nov-14 17:00N 38°08' W 122°31'1 2.0
2017-Nov-14 16:27N 38°07' W 122°30'0 0.3
2017-Nov-14 15:57N 38°07' W 122°30'0 0.1
2017-Nov-14 15:12N 38°07' W 122°30'0 0.7
2017-Nov-14 15:00N 38°07' W 122°29'2 3.3
2017-Nov-14 14:29N 38°06' W 122°27'2 3.6
2017-Nov-14 14:00N 38°05' W 122°26'1 3.0
2017-Nov-14 13:31N 38°03' W 122°26'3 5.0
2017-Nov-14 13:00N 38°01' W 122°26'2 4.9
2017-Nov-14 12:30N 37°58' W 122°26'2 4.7
2017-Nov-14 12:01N 37°56' W 122°26'2 4.5
2017-Nov-14 11:31N 37°54' W 122°25'2 4.4
2017-Nov-14 11:01N 37°52' W 122°24'2 4.7
2017-Nov-14 10:31N 37°50' W 122°22'1 1.1
2017-Nov-14 10:00N 37°50' W 122°21'0 0.2
2017-Nov-14 09:30N 37°50' W 122°21'0 0.1
2017-Nov-14 09:01N 37°50' W 122°21'0 0.0
2017-Nov-14 08:30N 37°50' W 122°21'0 0.1
2017-Nov-14 08:01N 37°50' W 122°21'0 0.0
2017-Nov-14 07:30N 37°50' W 122°21'0 0.0
2017-Nov-14 07:00N 37°50' W 122°21'0 0.0
2017-Nov-14 06:30N 37°50' W 122°21'0 0.0
2017-Nov-14 06:01N 37°50' W 122°21'0 0.1
2017-Nov-14 05:30N 37°50' W 122°21'0 0.1
2017-Nov-14 05:00N 37°50' W 122°21'0 0.2
2017-Nov-14 04:30N 37°50' W 122°21'2 3.5
2017-Nov-14 04:01N 37°51' W 122°23'4 7.2
2017-Nov-14 03:30N 37°54' W 122°25'3 6.6
2017-Nov-14 03:00N 37°57' W 122°26'5 6.5
2017-Nov-14 02:13N 38°01' W 122°22'3 7.8
2017-Nov-14 01:53N 38°03' W 122°19'3 9.1
2017-Nov-14 01:30N 38°04' W 122°15'  
2017-Nov-09 07:34N 38°03' W 122°06'2 5.7
2017-Nov-09 07:13N 38°02' W 122°08'2 5.3
2017-Nov-09 06:53N 38°03' W 122°10'2 5.5
2017-Nov-09 06:30N 38°04' W 122°13'3 4.9
2017-Nov-09 06:00N 38°03' W 122°16'3 5.3
2017-Nov-09 05:30N 38°03' W 122°19'3 6.2
2017-Nov-09 05:00N 38°01' W 122°22'  
Track history (hours):
 
Tides and Currents Weather Stations Pressure Air Temp Water Temp Dewpoint Dewpoint Depression Visibility Wind Speed Wind Dir Waves Ship Positions

Sarah Reed

Owner: THE DUTRA GROUP, SAN RAFAEL, CA. More information available from US FCC via Universal Licensing System.

Last reported at 2017-Nov-19 05:00 UTC. Time now 2017-Nov-19 05:06 UTC.
Position N 38°13' W 122°36'.

Length 19 m; draft 3.3 m.

Type: Towing. MMSI: 367003250.

Date/timePositionNaut miles runAvg speedWind from/ knotsBaromVisibWave heightAir tempDewpointWater temp
2017-Nov-19 05:00N 38°13' W 122°36'0 0.0
2017-Nov-19 04:30N 38°13' W 122°36'0 0.0
2017-Nov-19 04:00N 38°13' W 122°36'0 0.0
2017-Nov-19 03:30N 38°13' W 122°36'0 0.0
2017-Nov-18 19:35N 38°13' W 122°36'0 0.0
2017-Nov-18 19:30N 38°13' W 122°36'1 2.3
2017-Nov-18 19:00N 38°13' W 122°35'2 3.8
2017-Nov-18 18:30N 38°12' W 122°33'2 4.2
2017-Nov-18 18:00N 38°10' W 122°32'2 4.1
2017-Nov-18 17:30N 38°08' W 122°31'2 4.1
2017-Nov-18 17:00N 38°07' W 122°29'2 4.7
2017-Nov-18 16:30N 38°05' W 122°27'2 4.2
2017-Nov-18 16:00N 38°03' W 122°26'3 5.6
2017-Nov-18 15:30N 38°01' W 122°26'3 5.4
2017-Nov-18 15:00N 37°58' W 122°26'3 5.4
2017-Nov-18 14:30N 37°55' W 122°25'3 5.0
2017-Nov-18 14:00N 37°53' W 122°24'2 4.9
2017-Nov-18 13:30N 37°51' W 122°23'2 3.2
2017-Nov-18 13:00N 37°50' W 122°21'0 0.1
2017-Nov-18 12:30N 37°50' W 122°21'0 0.5
2017-Nov-18 12:00N 37°50' W 122°21'2 4.5
2017-Nov-18 11:30N 37°52' W 122°23'4 7.4
2017-Nov-18 11:00N 37°55' W 122°25'4 7.8
2017-Nov-18 10:30N 37°59' W 122°26'4 7.1
2017-Nov-18 10:00N 38°02' W 122°26'3 6.5
2017-Nov-18 09:29N 38°06' W 122°27'3 5.8
2017-Nov-18 09:00N 38°07' W 122°30'2 4.9
2017-Nov-18 08:30N 38°09' W 122°32'2 4.2
2017-Nov-18 08:00N 38°11' W 122°32'2 4.2
2017-Nov-18 07:30N 38°12' W 122°34'2 4.0
2017-Nov-18 07:00N 38°13' W 122°36'0 0.0
2017-Nov-17 19:19N 38°13' W 122°36'0 1.2
2017-Nov-17 19:00N 38°13' W 122°36'2 3.3
2017-Nov-17 18:30N 38°12' W 122°34'2 3.3
2017-Nov-17 18:00N 38°11' W 122°33'2 3.6
2017-Nov-17 17:30N 38°09' W 122°33'3 5.0
2017-Nov-17 17:00N 38°07' W 122°31'3 4.1
2017-Nov-17 16:20N 38°06' W 122°27'2 4.8
2017-Nov-17 16:00N 38°05' W 122°26'2 4.7
2017-Nov-17 15:30N 38°03' W 122°26'3 5.3
2017-Nov-17 15:00N 38°00' W 122°26'2 4.6
2017-Nov-17 14:30N 37°58' W 122°26'2 4.9
2017-Nov-17 14:00N 37°55' W 122°25'2 4.4
2017-Nov-17 13:30N 37°53' W 122°25'2 4.5
2017-Nov-17 13:00N 37°51' W 122°23'2 4.3
2017-Nov-17 12:30N 37°50' W 122°21'0 0.2
2017-Nov-17 12:01N 37°50' W 122°21'0 0.6
2017-Nov-17 11:31N 37°50' W 122°21'3 6.4
2017-Nov-17 11:00N 37°53' W 122°24'4 8.3
2017-Nov-17 10:28N 37°57' W 122°26'4 7.8
2017-Nov-17 09:59N 38°00' W 122°26'3 7.0
2017-Nov-17 09:30N 38°04' W 122°26'4 5.9
2017-Nov-17 08:48N 38°07' W 122°30'1 4.4
2017-Nov-17 08:30N 38°08' W 122°31'3 5.0
2017-Nov-17 07:59N 38°10' W 122°32'2 4.5
2017-Nov-17 07:30N 38°12' W 122°33'3 5.0
2017-Nov-17 07:00N 38°13' W 122°36'0 0.5
2017-Nov-17 06:30N 38°13' W 122°36'0 0.0
2017-Nov-17 06:00N 38°13' W 122°36'0 0.0
2017-Nov-16 18:35N 38°13' W 122°36'0 0.1
2017-Nov-16 18:30N 38°13' W 122°36'1 1.8
2017-Nov-16 18:00N 38°13' W 122°35'2 3.8
2017-Nov-16 17:30N 38°12' W 122°33'2 4.0
2017-Nov-16 17:00N 38°10' W 122°32'2 3.7
2017-Nov-16 16:30N 38°08' W 122°31'4 4.2
2017-Nov-16 15:36N 38°06' W 122°27'1 5.1
2017-Nov-16 15:29N 38°06' W 122°27'2 4.4
2017-Nov-16 15:00N 38°04' W 122°26'3 5.3
2017-Nov-16 14:30N 38°01' W 122°26'3 5.0
2017-Nov-16 14:00N 37°59' W 122°26'2 4.9
2017-Nov-16 13:30N 37°56' W 122°26'2 4.6
2017-Nov-16 13:00N 37°54' W 122°25'2 4.5
2017-Nov-16 12:31N 37°52' W 122°24'3 5.0
2017-Nov-16 12:00N 37°50' W 122°22'1 1.4
2017-Nov-16 11:30N 37°50' W 122°21'0 0.1
2017-Nov-16 11:01N 37°50' W 122°21'1 1.6
2017-Nov-16 10:30N 37°50' W 122°22'3 6.4
2017-Nov-16 10:00N 37°53' W 122°24'4 8.0
2017-Nov-16 09:30N 37°57' W 122°26'4 7.5
2017-Nov-16 08:58N 38°01' W 122°26'3 6.8
2017-Nov-16 08:30N 38°04' W 122°26'3 6.1
2017-Nov-16 07:59N 38°07' W 122°28'2 5.0
2017-Nov-16 07:30N 38°08' W 122°31'3 5.5
2017-Nov-16 07:00N 38°10' W 122°33'2 4.4
2017-Nov-16 06:31N 38°12' W 122°33'2 4.6
2017-Nov-16 06:00N 38°13' W 122°36'1 1.3
2017-Nov-16 05:30N 38°13' W 122°36'0 0.0
2017-Nov-16 05:00N 38°13' W 122°36'0 0.0
2017-Nov-16 04:30N 38°13' W 122°36'0 0.0
2017-Nov-16 04:00N 38°13' W 122°36'0 0.0
2017-Nov-15 19:28N 38°13' W 122°36'0 0.0
2017-Nov-15 19:00N 38°13' W 122°36'0 0.0
2017-Nov-15 18:30N 38°13' W 122°36'0 0.0
2017-Nov-15 18:00N 38°13' W 122°36'0 0.0
2017-Nov-15 17:30N 38°13' W 122°36'0 0.0
2017-Nov-15 17:00N 38°13' W 122°36'0 0.0
2017-Nov-15 16:30N 38°13' W 122°36'0 0.0
2017-Nov-15 16:01N 38°13' W 122°36'0 0.0
2017-Nov-15 15:31N 38°13' W 122°36'0 0.0
2017-Nov-15 15:00N 38°13' W 122°36'0 0.0
2017-Nov-15 14:27N 38°13' W 122°36'0 0.0
2017-Nov-15 13:58N 38°13' W 122°36'0 0.0
2017-Nov-15 13:30N 38°13' W 122°36'0 0.0
2017-Nov-15 13:00N 38°13' W 122°36'0 0.0
2017-Nov-15 12:30N 38°13' W 122°36'0 0.0
2017-Nov-15 12:01N 38°13' W 122°36'0 0.0
2017-Nov-15 11:30N 38°13' W 122°36'0 0.0
2017-Nov-15 11:00N 38°13' W 122°36'0 0.0
2017-Nov-15 10:30N 38°13' W 122°36'0 0.0
2017-Nov-15 10:00N 38°13' W 122°36'0 0.0
2017-Nov-15 09:31N 38°13' W 122°36'0 0.0
2017-Nov-15 09:00N 38°13' W 122°36'0 0.0
2017-Nov-15 08:30N 38°13' W 122°36'0 0.0
2017-Nov-15 08:01N 38°13' W 122°36'0 0.0
2017-Nov-15 07:31N 38°13' W 122°36'0 0.0
2017-Nov-15 07:01N 38°13' W 122°36'0 0.0
2017-Nov-15 06:31N 38°13' W 122°36'0 0.0
2017-Nov-15 06:00N 38°13' W 122°36'0 0.0
2017-Nov-15 05:31N 38°13' W 122°36'0 0.1
2017-Nov-15 05:01N 38°13' W 122°36'0 0.3
2017-Nov-15 04:31N 38°13' W 122°36'0 0.0
2017-Nov-15 04:00N 38°13' W 122°36'0 0.0
2017-Nov-15 03:30N 38°13' W 122°36'0 0.0
2017-Nov-15 03:01N 38°13' W 122°36'0 0.0
2017-Nov-15 02:30N 38°13' W 122°36'0 0.0
2017-Nov-15 02:00N 38°13' W 122°36'0 0.0
2017-Nov-15 01:30N 38°13' W 122°36'0 0.0
2017-Nov-15 01:00N 38°13' W 122°36'0 0.0
2017-Nov-15 00:31N 38°13' W 122°36'0 0.0
2017-Nov-15 00:00N 38°13' W 122°36'0 0.0
2017-Nov-14 23:31N 38°13' W 122°36'0 0.0
2017-Nov-14 23:00N 38°13' W 122°36'0 0.0
2017-Nov-14 22:30N 38°13' W 122°36'0 0.0
2017-Nov-14 22:01N 38°13' W 122°36'0 0.0
2017-Nov-14 21:31N 38°13' W 122°36'0 0.1
2017-Nov-14 21:00N 38°13' W 122°36'0 0.1
2017-Nov-14 19:20N 38°13' W 122°36'0 1.2
2017-Nov-14 19:01N 38°13' W 122°36'2 3.2
2017-Nov-14 18:31N 38°12' W 122°34'2 3.2
2017-Nov-14 18:00N 38°11' W 122°33'2 3.4
2017-Nov-14 17:30N 38°09' W 122°33'2 5.0
2017-Nov-14 17:00N 38°08' W 122°31'1 2.0
2017-Nov-14 16:27N 38°07' W 122°30'0 0.3
2017-Nov-14 15:57N 38°07' W 122°30'0 0.1
2017-Nov-14 15:12N 38°07' W 122°30'0 0.7
2017-Nov-14 15:00N 38°07' W 122°29'2 3.3
2017-Nov-14 14:29N 38°06' W 122°27'2 3.6
2017-Nov-14 14:00N 38°05' W 122°26'1 3.0
2017-Nov-14 13:31N 38°03' W 122°26'3 5.0
2017-Nov-14 13:00N 38°01' W 122°26'2 4.9
2017-Nov-14 12:30N 37°58' W 122°26'2 4.7
2017-Nov-14 12:01N 37°56' W 122°26'2 4.5
2017-Nov-14 11:31N 37°54' W 122°25'2 4.4
2017-Nov-14 11:01N 37°52' W 122°24'2 4.7
2017-Nov-14 10:31N 37°50' W 122°22'1 1.1
2017-Nov-14 10:00N 37°50' W 122°21'0 0.2
2017-Nov-14 09:30N 37°50' W 122°21'0 0.1
2017-Nov-14 09:01N 37°50' W 122°21'0 0.0
2017-Nov-14 08:30N 37°50' W 122°21'0 0.1
2017-Nov-14 08:01N 37°50' W 122°21'0 0.0
2017-Nov-14 07:30N 37°50' W 122°21'0 0.0
2017-Nov-14 07:00N 37°50' W 122°21'0 0.0
2017-Nov-14 06:30N 37°50' W 122°21'0 0.0
2017-Nov-14 06:01N 37°50' W 122°21'0 0.1
2017-Nov-14 05:30N 37°50' W 122°21'0 0.1
2017-Nov-14 05:00N 37°50' W 122°21'0 0.2
2017-Nov-14 04:30N 37°50' W 122°21'2 3.5
2017-Nov-14 04:01N 37°51' W 122°23'4 7.2
2017-Nov-14 03:30N 37°54' W 122°25'3 6.6
2017-Nov-14 03:00N 37°57' W 122°26'5 6.5
2017-Nov-14 02:13N 38°01' W 122°22'3 7.8
2017-Nov-14 01:53N 38°03' W 122°19'3 9.1
2017-Nov-14 01:30N 38°04' W 122°15'  
2017-Nov-09 07:34N 38°03' W 122°06'2 5.7
2017-Nov-09 07:13N 38°02' W 122°08'2 5.3
2017-Nov-09 06:53N 38°03' W 122°10'2 5.5
2017-Nov-09 06:30N 38°04' W 122°13'3 4.9
2017-Nov-09 06:00N 38°03' W 122°16'3 5.3
2017-Nov-09 05:30N 38°03' W 122°19'3 6.2
2017-Nov-09 05:00N 38°01' W 122°22'  

Dump ship's entire track history